createdAt,value
2023-03-22T00:01:43.438Z,11.65
2023-03-22T00:04:46.199Z,12.95
2023-03-22T00:07:54.247Z,12.40
2023-03-22T00:10:56.876Z,12.57
2023-03-22T00:13:59.755Z,12.45
2023-03-22T00:17:02.467Z,11.77
2023-03-22T00:20:08.653Z,12.05
2023-03-22T00:23:11.534Z,12.32
2023-03-22T00:26:15.139Z,11.63
2023-03-22T00:29:19.957Z,11.52
2023-03-22T00:32:22.792Z,11.57
2023-03-22T00:35:25.801Z,12.27
2023-03-22T00:38:42.482Z,12.35
2023-03-22T00:41:46.293Z,12.20
2023-03-22T00:44:48.921Z,12.98
2023-03-22T00:47:51.530Z,12.25
2023-03-22T00:50:54.234Z,14.00
2023-03-22T00:53:56.874Z,13.18
2023-03-22T00:56:59.402Z,12.13
2023-03-22T01:00:16.132Z,12.85
2023-03-22T01:03:22.031Z,12.18
2023-03-22T01:06:25.004Z,11.98
2023-03-22T01:09:30.962Z,11.73
2023-03-22T01:12:33.499Z,11.60
2023-03-22T01:15:36.704Z,11.45
2023-03-22T01:18:39.623Z,11.90
2023-03-22T01:21:42.856Z,11.02
2023-03-22T01:24:45.439Z,12.32
2023-03-22T01:27:48.260Z,11.23
2023-03-22T01:30:51.473Z,10.80
2023-03-22T01:33:54.193Z,11.07
2023-03-22T01:36:58.525Z,11.88
2023-03-22T01:40:01.757Z,12.13
2023-03-22T01:43:11.890Z,11.15
2023-03-22T01:46:14.916Z,11.32
2023-03-22T01:49:24.316Z,11.23
2023-03-22T01:52:27.704Z,10.98
2023-03-22T01:55:44.017Z,10.98
2023-03-22T01:58:52.390Z,11.23
2023-03-22T02:02:02.858Z,11.70
2023-03-22T02:08:08.937Z,10.90
2023-03-22T02:11:38.614Z,11.25
2023-03-22T02:15:10.909Z,10.38
2023-03-22T02:19:10.998Z,10.07
2023-03-22T02:22:45.242Z,10.90
2023-03-22T02:26:07.138Z,11.23
2023-03-22T02:29:34.938Z,11.68
2023-03-22T02:32:52.659Z,10.68
2023-03-22T02:36:11.275Z,11.63
2023-03-22T02:39:38.855Z,10.85
2023-03-22T02:43:01.451Z,10.07
2023-03-22T02:46:20.384Z,9.85
2023-03-22T02:49:33.076Z,10.80
2023-03-22T02:52:44.324Z,10.80
2023-03-22T02:55:52.783Z,10.27
2023-03-22T02:58:59.597Z,11.60
2023-03-22T03:02:03.842Z,10.45
2023-03-22T03:05:08.610Z,11.30
2023-03-22T03:08:14.332Z,10.82
2023-03-22T03:11:18.300Z,11.75
2023-03-22T03:14:29.087Z,11.13
2023-03-22T03:18:00.983Z,10.80
2023-03-22T03:21:09.910Z,11.50
2023-03-22T03:24:36.677Z,11.57
2023-03-22T03:27:51.064Z,12.38
2023-03-22T03:31:03.544Z,11.75
2023-03-22T03:34:13.580Z,12.35
2023-03-22T03:37:22.857Z,12.10
2023-03-22T03:40:33.000Z,12.30
2023-03-22T03:43:37.241Z,12.60
2023-03-22T03:46:41.820Z,12.75
2023-03-22T03:49:44.608Z,11.90
2023-03-22T03:52:47.251Z,13.13
2023-03-22T03:55:49.926Z,12.00
2023-03-22T03:58:53.096Z,12.43
2023-03-22T04:01:56.303Z,13.27
2023-03-22T04:05:04.701Z,13.20
2023-03-22T04:08:07.882Z,11.65
2023-03-22T04:11:10.685Z,11.55
2023-03-22T04:14:14.914Z,12.60
2023-03-22T04:17:17.668Z,11.73
2023-03-22T04:20:20.997Z,11.63
2023-03-22T04:23:25.734Z,12.18
2023-03-22T04:26:29.368Z,12.93
2023-03-22T04:30:01.386Z,12.77
2023-03-22T04:33:39.589Z,12.70
2023-03-22T04:36:54.460Z,12.73
2023-03-22T04:40:16.042Z,12.90
2023-03-22T04:43:35.650Z,13.07
2023-03-22T04:46:42.859Z,13.57
2023-03-22T04:49:46.260Z,13.63
2023-03-22T04:52:51.319Z,13.57
2023-03-22T04:55:57.577Z,14.75
2023-03-22T04:59:02.522Z,13.32
2023-03-22T05:02:05.628Z,13.23
2023-03-22T05:05:16.477Z,14.27
2023-03-22T05:08:25.200Z,13.95
2023-03-22T05:11:28.579Z,15.68
2023-03-22T05:14:54.469Z,14.52
2023-03-22T05:18:02.248Z,14.15
2023-03-22T05:21:16.559Z,13.45
2023-03-22T05:24:20.742Z,13.52
2023-03-22T05:27:31.510Z,16.27
2023-03-22T05:30:48.806Z,15.25
2023-03-22T05:34:12.244Z,13.90
2023-03-22T05:37:16.859Z,13.50
2023-03-22T05:40:29.459Z,12.93
2023-03-22T05:43:32.903Z,12.63
2023-03-22T05:46:35.913Z,13.32
2023-03-22T05:50:01.464Z,13.95
2023-03-22T05:53:05.658Z,14.63
2023-03-22T05:56:28.613Z,14.00
2023-03-22T05:59:39.277Z,14.85
2023-03-22T06:02:47.323Z,15.07
2023-03-22T06:05:54.966Z,14.98
2023-03-22T06:09:16.958Z,13.88
2023-03-22T06:12:27.210Z,15.02
2023-03-22T06:15:49.041Z,16.67
2023-03-22T06:18:56.063Z,15.48
2023-03-22T06:21:58.805Z,17.00
2023-03-22T06:25:02.862Z,16.63
2023-03-22T06:28:12.846Z,16.65
2023-03-22T06:31:22.892Z,15.68
2023-03-22T06:34:31.039Z,15.88
2023-03-22T06:37:33.831Z,15.82
2023-03-22T06:40:36.752Z,15.13
2023-03-22T06:43:39.546Z,15.40
2023-03-22T06:47:03.222Z,13.88
2023-03-22T06:50:24.287Z,9.30
2023-03-22T06:53:42.388Z,9.98
2023-03-22T06:56:46.174Z,10.18
2023-03-22T06:59:48.765Z,11.82
2023-03-22T07:02:52.767Z,11.45
2023-03-22T07:06:07.760Z,10.65
2023-03-22T07:09:13.734Z,12.48
2023-03-22T07:12:18.737Z,11.77
2023-03-22T07:15:24.818Z,11.23
2023-03-22T07:18:34.504Z,12.38
2023-03-22T07:21:37.085Z,11.98
2023-03-22T07:24:55.712Z,10.38
2023-03-22T07:28:00.835Z,10.38
2023-03-22T07:31:07.311Z,10.70
2023-03-22T07:34:28.677Z,10.63
2023-03-22T07:37:38.312Z,10.93
2023-03-22T07:40:46.561Z,11.70
2023-03-22T07:43:58.263Z,11.23
2023-03-22T07:47:06.180Z,10.13
2023-03-22T07:50:15.370Z,10.20
2023-03-22T07:53:20.467Z,10.73
2023-03-22T07:56:23.503Z,10.32
2023-03-22T07:59:26.527Z,10.18
2023-03-22T08:02:30.378Z,11.52
2023-03-22T08:05:35.359Z,10.05
2023-03-22T08:08:40.700Z,10.40
2023-03-22T08:11:43.875Z,11.27
2023-03-22T08:14:50.577Z,11.10
2023-03-22T08:17:58.370Z,10.45
2023-03-22T08:21:11.187Z,10.90
2023-03-22T08:24:15.276Z,11.98
2023-03-22T08:27:47.551Z,11.43
2023-03-22T08:30:51.729Z,11.93
2023-03-22T08:33:56.567Z,11.13
2023-03-22T08:36:59.170Z,11.70
2023-03-22T08:40:02.097Z,11.85
2023-03-22T08:46:15.862Z,11.48
2023-03-22T08:49:20.797Z,12.35
2023-03-22T08:52:31.108Z,11.18
2023-03-22T08:55:49.240Z,12.90
2023-03-22T08:59:12.066Z,11.52
2023-03-22T09:02:30.319Z,12.10
2023-03-22T09:05:34.154Z,17.17
2023-03-22T09:08:37.030Z,11.93
2023-03-22T09:11:44.872Z,10.48
2023-03-22T09:14:49.225Z,11.55
2023-03-22T09:17:52.633Z,10.40
2023-03-22T09:20:55.463Z,10.95
2023-03-22T09:24:03.172Z,11.00
2023-03-22T09:27:16.103Z,10.38
2023-03-22T09:30:22.749Z,10.05
2023-03-22T09:33:25.657Z,9.63
2023-03-22T09:36:34.858Z,10.30
2023-03-22T09:39:38.535Z,10.10
2023-03-22T09:42:54.967Z,10.27
2023-03-22T09:45:58.778Z,11.10
2023-03-22T09:49:06.178Z,10.38
2023-03-22T09:52:14.462Z,15.68
2023-03-22T09:55:30.429Z,11.52
2023-03-22T09:58:36.176Z,10.07
2023-03-22T10:01:52.224Z,10.75
2023-03-22T10:05:09.832Z,10.63
2023-03-22T10:08:32.446Z,11.25
2023-03-22T10:11:38.088Z,10.38
2023-03-22T10:14:46.854Z,10.63
2023-03-22T10:17:55.244Z,9.68
2023-03-22T10:21:04.451Z,10.32
2023-03-22T10:24:17.009Z,10.63
2023-03-22T10:27:21.997Z,10.38
2023-03-22T10:30:28.650Z,10.25
2023-03-22T10:33:37.659Z,11.43
2023-03-22T10:36:41.604Z,10.70
2023-03-22T10:39:51.325Z,10.93
2023-03-22T10:43:03.717Z,10.88
2023-03-22T10:46:12.504Z,10.60
2023-03-22T10:49:28.600Z,10.35
2023-03-22T10:52:37.042Z,10.63
2023-03-22T10:55:44.277Z,10.88
2023-03-22T10:58:51.307Z,10.73
2023-03-22T11:01:54.318Z,12.00
2023-03-22T11:05:00.977Z,10.80
2023-03-22T11:08:04.042Z,10.48
2023-03-22T11:11:17.720Z,10.23
2023-03-22T11:14:26.839Z,10.40
2023-03-22T11:17:31.184Z,10.38
2023-03-22T11:20:35.030Z,10.73
2023-03-22T11:23:42.071Z,10.60
2023-03-22T11:27:05.713Z,11.55
2023-03-22T11:30:21.972Z,10.82
2023-03-22T11:33:26.059Z,11.10
2023-03-22T11:36:29.410Z,11.55
2023-03-22T11:39:32.081Z,12.20
2023-03-22T11:42:35.773Z,12.75
2023-03-22T11:45:42.682Z,12.48
2023-03-22T11:48:48.531Z,12.90
2023-03-22T11:51:52.371Z,11.48
2023-03-22T11:54:56.468Z,12.57
2023-03-22T11:57:58.989Z,13.23
2023-03-22T12:01:02.943Z,12.00
2023-03-22T12:04:11.542Z,12.65
2023-03-22T12:07:17.250Z,12.55
2023-03-22T12:10:26.709Z,11.90
2023-03-22T12:14:01.781Z,12.45
2023-03-22T12:17:24.474Z,11.85
2023-03-22T12:20:52.119Z,11.82
2023-03-22T12:24:01.110Z,11.55
2023-03-22T12:27:27.086Z,12.15
2023-03-22T12:30:33.904Z,12.38
2023-03-22T12:33:50.384Z,11.43
2023-03-22T12:36:56.862Z,10.75
2023-03-22T12:40:06.038Z,11.20
2023-03-22T12:43:14.455Z,10.57
2023-03-22T12:46:22.220Z,10.40
2023-03-22T12:49:52.406Z,10.13
2023-03-22T12:52:57.055Z,10.27
2023-03-22T12:56:01.099Z,10.05
2023-03-22T12:59:08.437Z,9.43
2023-03-22T13:02:27.574Z,8.10
2023-03-22T13:05:33.892Z,8.50
2023-03-22T13:09:09.153Z,8.23
2023-03-22T13:12:17.547Z,7.13
2023-03-22T13:15:41.374Z,7.13
2023-03-22T13:18:45.325Z,7.68
2023-03-22T13:21:50.024Z,7.88
2023-03-22T13:25:13.268Z,7.93
2023-03-22T13:28:26.241Z,6.97
2023-03-22T13:31:46.547Z,6.35
2023-03-22T13:34:52.824Z,6.50
2023-03-22T13:38:03.069Z,7.20
2023-03-22T13:41:25.931Z,6.47
2023-03-22T13:44:39.127Z,5.35
2023-03-22T13:47:46.903Z,5.63
2023-03-22T13:50:52.336Z,5.38
2023-03-22T13:54:20.667Z,5.70
2023-03-22T13:57:59.414Z,5.40
2023-03-22T14:01:49.640Z,5.28
2023-03-22T14:04:57.244Z,6.28
2023-03-22T14:08:04.359Z,5.57
2023-03-22T14:11:28.899Z,5.80
2023-03-22T14:14:40.580Z,5.75
2023-03-22T14:17:47.047Z,5.22
2023-03-22T14:20:55.064Z,5.75
